Terminal Aerodrome Forecast
Issued by NWS Charleston, WV

Current Version | Previous Version | Text Only | Print | Product List | Glossary Off
Versions: 1 2 3 4 5 6 7 8 9 10 11 12 13 14 15 16 17 18 19 20 21 22 23 24 25 26 27 28

000
FTUS41 KRLX 312200 AAA
TAFEKN
TAF AMD
KEKN 312204Z 3122/0118 21004KT P6SM SCT040 BKN080
     FM010500 20004KT 3SM BR SCT002 OVC040
     FM010900 26004KT 1SM BR BKN001 OVC018
     FM011400 24006KT 6SM BR BKN023=

USA.gov is the U.S. government's official web portal to all federal, state and local government web resources and services.